Time;durP1;ratioP1;P1;durP2;ratioP2;P2;SDS_P1;SDS_P2;PMS_P1;PMS_P2;Temp;Humidity;BMP_temperature;BMP_pressure;BME280_temperature;BME280_humidity;BME280_pressure;Samples;Min_cycle;Max_cycle;Signal;HPM_P1;HPM_P2
2023/08/25 00:01:16;;;;;;;7.23;4.10;;;20.80;99.90;;;;;;4972972;28;20449;-82
2023/08/25 00:03:42;;;;;;;6.23;3.80;;;20.70;99.90;;;;;;4964736;28;20575;-80
2023/08/25 00:06:09;;;;;;;5.10;3.63;;;20.70;99.90;;;;;;4983126;28;20443;-77
2023/08/25 00:08:35;;;;;;;7.57;4.30;;;20.70;99.90;;;;;;4970828;28;20184;-77
2023/08/25 00:11:00;;;;;;;5.70;4.20;;;20.60;99.90;;;;;;4981198;28;20457;-80
2023/08/25 00:13:26;;;;;;;8.33;5.00;;;20.60;99.90;;;;;;4979503;28;20443;-79
2023/08/25 00:15:52;;;;;;;5.37;4.17;;;20.60;99.90;;;;;;4983491;28;20176;-81
2023/08/25 00:18:17;;;;;;;6.40;4.10;;;20.60;99.90;;;;;;4979955;28;20583;-79
2023/08/25 00:20:43;;;;;;;6.80;4.80;;;20.60;99.90;;;;;;4981603;28;20218;-81
2023/08/25 00:23:09;;;;;;;6.00;4.30;;;20.50;99.90;;;;;;4978947;28;20210;-80
2023/08/25 00:25:34;;;;;;;9.20;4.93;;;20.60;99.90;;;;;;4970449;28;20195;-82
2023/08/25 00:28:00;;;;;;;8.83;4.50;;;20.60;99.90;;;;;;4969590;28;20230;-81
2023/08/25 00:30:26;;;;;;;6.80;4.77;;;20.70;99.90;;;;;;4967768;28;20212;-77
2023/08/25 00:32:51;;;;;;;8.33;4.30;;;20.70;99.90;;;;;;4970835;28;20199;-78
2023/08/25 00:35:17;;;;;;;4.70;4.00;;;20.80;99.90;;;;;;4966795;28;20461;-82
2023/08/25 00:37:43;;;;;;;6.83;3.87;;;21.00;99.90;;;;;;4970273;28;20192;-81
2023/08/25 00:40:10;;;;;;;4.60;4.20;;;21.10;99.90;;;;;;4971921;28;20522;-79
2023/08/25 00:42:35;;;;;;;5.37;4.40;;;21.10;99.90;;;;;;4991310;28;20184;-79
2023/08/25 00:45:01;;;;;;;6.60;4.03;;;21.10;99.90;;;;;;4992225;28;20486;-75
2023/08/25 00:47:27;;;;;;;5.67;4.30;;;21.10;99.90;;;;;;4997012;28;20187;-76
2023/08/25 00:49:53;;;;;;;9.17;4.87;;;21.10;99.90;;;;;;4974850;28;20251;-83
2023/08/25 00:52:20;;;;;;;9.53;4.20;;;21.20;99.90;;;;;;4964357;28;20457;-83
2023/08/25 00:54:48;;;;;;;5.57;4.30;;;21.20;99.90;;;;;;4980797;28;20453;-77
2023/08/25 00:57:13;;;;;;;5.43;3.40;;;21.30;99.90;;;;;;4977856;28;20439;-77
2023/08/25 00:59:40;;;;;;;5.43;3.43;;;21.30;99.90;;;;;;4970795;28;21564;-82
2023/08/25 01:02:06;;;;;;;11.00;4.07;;;21.30;99.90;;;;;;4970586;28;20199;-83
2023/08/25 01:04:31;;;;;;;6.60;4.00;;;21.40;99.90;;;;;;4969574;28;20509;-82
2023/08/25 01:06:57;;;;;;;4.70;3.60;;;21.40;99.90;;;;;;4970843;28;21117;-83
2023/08/25 01:09:24;;;;;;;6.70;5.07;;;21.50;99.90;;;;;;4973001;28;20212;-80
2023/08/25 01:12:00;;;;;;;4.47;4.00;;;21.50;99.90;;;;;;4969390;28;20190;-81
2023/08/25 01:14:51;;;;;;;6.93;4.40;;;21.50;99.90;;;;;;4980074;28;20451;-84
2023/08/25 01:17:45;;;;;;;5.73;4.40;;;21.50;99.90;;;;;;4982871;28;20622;-83
2023/08/25 01:20:13;;;;;;;10.50;5.00;;;21.60;99.90;;;;;;4972485;28;20451;-79
2023/08/25 01:23:01;;;;;;;5.87;4.13;;;21.60;99.90;;;;;;4979330;28;20513;-78
2023/08/25 01:25:28;;;;;;;9.80;3.80;;;21.70;99.90;;;;;;4975206;28;20512;-83
2023/08/25 01:28:03;;;;;;;6.10;4.40;;;21.70;99.90;;;;;;4984894;28;20426;-80
2023/08/25 01:30:30;;;;;;;5.00;4.50;;;21.70;99.90;;;;;;4989376;28;20475;-79
2023/08/25 01:32:57;;;;;;;5.50;4.63;;;21.60;99.90;;;;;;4980844;28;20437;-80
2023/08/25 01:35:45;;;;;;;6.17;3.93;;;21.40;99.90;;;;;;4980027;28;22640;-78
2023/08/25 01:38:24;;;;;;;7.30;4.33;;;21.30;99.90;;;;;;4976697;28;20476;-80
2023/08/25 01:41:16;;;;;;;5.40;4.03;;;21.20;99.90;;;;;;4975386;28;20513;-84
2023/08/25 01:43:47;;;;;;;7.23;4.00;;;21.10;99.90;;;;;;4975040;28;20443;-78
2023/08/25 01:46:15;;;;;;;4.37;3.97;;;21.00;99.90;;;;;;4972627;28;20434;-80
2023/08/25 01:48:44;;;;;;;4.90;4.00;;;21.00;99.90;;;;;;4968513;28;20446;-82
2023/08/25 01:51:11;;;;;;;4.90;3.77;;;20.90;99.90;;;;;;4971296;28;20482;-76
2023/08/25 01:53:37;;;;;;;6.10;4.13;;;20.90;99.90;;;;;;4969176;28;20434;-84
2023/08/25 01:56:03;;;;;;;5.73;5.07;;;22.10;99.90;;;;;;4978062;28;20459;-80
2023/08/25 01:58:28;;;;;;;4.60;3.73;;;20.90;99.90;;;;;;4973056;28;20454;-79
2023/08/25 02:00:54;;;;;;;6.20;4.40;;;21.00;99.90;;;;;;4969373;28;20246;-81
2023/08/25 02:03:19;;;;;;;6.43;4.23;;;20.90;99.90;;;;;;4967614;28;20756;-81
2023/08/25 02:05:45;;;;;;;6.53;4.07;;;20.90;99.90;;;;;;4968986;28;20728;-80
2023/08/25 02:08:10;;;;;;;4.50;3.60;;;20.80;99.90;;;;;;4969086;28;20953;-81
2023/08/25 02:10:36;;;;;;;6.60;4.50;;;20.80;99.90;;;;;;4978751;28;20211;-84
2023/08/25 02:13:01;;;;;;;4.10;3.10;;;20.80;99.90;;;;;;4977676;28;20203;-78
2023/08/25 02:15:27;;;;;;;7.37;3.90;;;20.80;99.90;;;;;;4970938;28;20178;-82
2023/08/25 02:17:52;;;;;;;5.93;4.23;;;20.70;99.90;;;;;;4979248;28;20180;-81
2023/08/25 02:20:18;;;;;;;5.87;3.50;;;20.60;99.90;;;;;;4981025;28;20196;-82
2023/08/25 02:22:44;;;;;;;6.70;3.70;;;20.50;99.90;;;;;;4975189;28;20199;-80
2023/08/25 02:25:09;;;;;;;10.23;4.60;;;20.50;99.90;;;;;;4975874;28;20263;-84
2023/08/25 02:27:35;;;;;;;7.10;4.43;;;20.50;99.90;;;;;;4978602;28;20222;-81
2023/08/25 02:30:00;;;;;;;7.93;4.10;;;20.50;99.90;;;;;;4973201;28;20243;-80
2023/08/25 02:32:26;;;;;;;6.23;3.93;;;20.40;99.90;;;;;;4973288;28;20180;-83
2023/08/25 02:34:51;;;;;;;3.90;3.30;;;20.50;99.90;;;;;;4970495;28;20236;-83
2023/08/25 02:37:17;;;;;;;4.70;4.20;;;20.60;99.90;;;;;;4974434;28;20270;-82
2023/08/25 02:39:42;;;;;;;4.30;3.70;;;20.60;99.90;;;;;;4971718;28;20239;-81
2023/08/25 02:42:08;;;;;;;4.53;3.80;;;20.60;99.90;;;;;;4971201;28;20187;-78
2023/08/25 02:44:33;;;;;;;8.07;3.90;;;20.60;99.90;;;;;;4971897;28;20869;-79
2023/08/25 02:46:59;;;;;;;6.67;3.87;;;20.60;99.90;;;;;;4977007;28;20198;-80
2023/08/25 02:49:24;;;;;;;6.60;3.57;;;20.60;99.90;;;;;;4972983;28;20219;-81
2023/08/25 02:51:50;;;;;;;6.77;3.67;;;20.50;99.90;;;;;;4986301;28;20227;-77
2023/08/25 02:54:16;;;;;;;4.60;3.80;;;20.60;99.90;;;;;;4982775;28;21096;-82
2023/08/25 02:56:41;;;;;;;7.20;4.00;;;20.60;99.90;;;;;;4978682;28;20801;-76
2023/08/25 02:59:07;;;;;;;5.40;3.33;;;20.50;99.90;;;;;;4989165;28;20238;-85
2023/08/25 03:01:33;;;;;;;8.50;3.73;;;20.60;99.90;;;;;;4972536;28;20270;-85
2023/08/25 03:03:58;;;;;;;5.77;3.63;;;20.60;99.90;;;;;;4971131;28;20192;-82
2023/08/25 03:06:24;;;;;;;4.43;3.57;;;20.50;99.90;;;;;;4970539;28;20457;-81
2023/08/25 03:08:49;;;;;;;6.10;3.83;;;20.50;99.90;;;;;;4978987;28;20195;-79
2023/08/25 03:11:15;;;;;;;6.90;3.90;;;20.50;99.90;;;;;;4974408;28;20191;-83
2023/08/25 03:13:41;;;;;;;7.10;3.27;;;20.40;99.90;;;;;;4972811;28;20958;-82
2023/08/25 03:16:07;;;;;;;5.30;2.93;;;20.40;99.90;;;;;;4969738;28;20283;-83
2023/08/25 03:18:33;;;;;;;5.93;3.80;;;20.40;99.90;;;;;;4970474;28;20269;-82
2023/08/25 03:20:59;;;;;;;5.40;3.60;;;20.30;99.90;;;;;;4969909;28;20462;-78
2023/08/25 03:23:24;;;;;;;3.97;3.10;;;20.30;99.90;;;;;;4983559;28;20535;-81
2023/08/25 03:25:50;;;;;;;6.73;3.60;;;20.30;99.90;;;;;;4974299;28;20198;-80
2023/08/25 03:28:15;;;;;;;3.33;3.03;;;20.30;99.90;;;;;;4966894;28;20188;-85
2023/08/25 03:30:41;;;;;;;7.53;4.17;;;20.30;99.90;;;;;;4966054;28;20230;-82
2023/08/25 03:33:07;;;;;;;4.10;3.60;;;20.40;99.90;;;;;;4970051;28;20282;-83
2023/08/25 03:35:34;;;;;;;7.00;3.60;;;20.40;99.90;;;;;;4957892;28;20601;-84
2023/08/25 03:37:59;;;;;;;3.60;3.30;;;20.40;99.90;;;;;;4972646;28;20199;-83
2023/08/25 03:40:25;;;;;;;14.27;4.20;;;20.40;99.90;;;;;;4969713;28;20523;-85
2023/08/25 03:42:50;;;;;;;5.43;3.90;;;20.30;99.90;;;;;;4976643;28;20321;-83
2023/08/25 03:45:16;;;;;;;4.03;3.40;;;20.30;99.90;;;;;;4972028;28;20258;-82
2023/08/25 03:47:41;;;;;;;6.10;4.30;;;20.40;99.90;;;;;;4965298;28;20216;-81
2023/08/25 03:50:07;;;;;;;6.03;4.00;;;20.30;99.90;;;;;;4965025;28;20219;-81
2023/08/25 03:52:33;;;;;;;4.83;2.97;;;20.30;99.90;;;;;;4965191;28;20187;-85
2023/08/25 03:54:58;;;;;;;7.17;3.77;;;20.30;99.90;;;;;;4961339;28;20505;-83
2023/08/25 03:57:24;;;;;;;4.60;3.77;;;20.30;99.90;;;;;;4963970;28;20191;-82
2023/08/25 03:59:49;;;;;;;5.83;3.73;;;20.30;99.90;;;;;;4968027;28;20327;-84
2023/08/25 04:02:15;;;;;;;4.23;3.40;;;20.30;99.90;;;;;;4969621;28;20679;-83
2023/08/25 04:04:41;;;;;;;5.30;3.77;;;20.30;99.90;;;;;;4973450;28;20223;-82
2023/08/25 04:07:07;;;;;;;7.67;4.83;;;20.20;99.90;;;;;;4963982;28;20191;-85
2023/08/25 04:09:33;;;;;;;7.53;4.00;;;20.20;99.90;;;;;;4966327;28;20204;-82
2023/08/25 04:11:58;;;;;;;3.83;3.43;;;20.30;99.90;;;;;;4974816;28;20595;-84
2023/08/25 04:14:24;;;;;;;5.37;3.40;;;20.40;99.90;;;;;;4986587;28;20221;-81
2023/08/25 04:16:50;;;;;;;6.83;3.30;;;20.30;99.90;;;;;;4984801;28;20178;-87
2023/08/25 04:19:16;;;;;;;6.40;3.40;;;20.30;99.90;;;;;;4979473;28;20211;-84
2023/08/25 04:21:43;;;;;;;5.47;4.60;;;20.40;99.90;;;;;;4980582;28;20188;-82
2023/08/25 04:24:09;;;;;;;9.03;4.37;;;20.20;99.90;;;;;;4979857;28;20439;-86
2023/08/25 04:26:34;;;;;;;7.00;4.50;;;20.00;99.90;;;;;;4980143;28;22826;-83
2023/08/25 04:29:00;;;;;;;6.93;4.00;;;20.00;99.90;;;;;;4975995;28;20227;-86
2023/08/25 04:31:25;;;;;;;5.87;3.73;;;20.00;99.90;;;;;;4969697;28;20192;-83
2023/08/25 04:33:51;;;;;;;6.60;3.67;;;20.00;99.90;;;;;;4972038;28;20248;-86
2023/08/25 04:36:16;;;;;;;6.20;3.83;;;20.00;99.90;;;;;;4968590;28;20191;-82
2023/08/25 04:38:42;;;;;;;5.47;3.77;;;20.10;99.90;;;;;;4974303;28;20175;-87
2023/08/25 04:41:07;;;;;;;5.17;3.90;;;20.10;99.90;;;;;;4966820;28;20214;-83
2023/08/25 04:43:33;;;;;;;5.27;3.70;;;20.20;99.90;;;;;;4975340;28;20175;-84
2023/08/25 04:45:58;;;;;;;5.70;4.50;;;20.20;99.90;;;;;;4989735;28;20202;-81
2023/08/25 04:48:24;;;;;;;3.50;3.07;;;20.30;99.90;;;;;;4994923;28;20227;-82
2023/08/25 04:50:50;;;;;;;7.17;3.50;;;20.30;99.90;;;;;;4991737;28;20270;-83
2023/08/25 04:53:15;;;;;;;3.97;2.80;;;20.30;99.90;;;;;;4978943;28;20425;-82
2023/08/25 04:55:41;;;;;;;5.53;3.60;;;20.50;99.90;;;;;;4974437;28;21101;-83
2023/08/25 04:58:08;;;;;;;5.73;3.63;;;20.70;99.90;;;;;;4981447;28;20220;-85
2023/08/25 05:00:33;;;;;;;5.43;4.20;;;20.80;99.90;;;;;;4971456;28;20462;-84
2023/08/25 05:02:59;;;;;;;6.83;4.30;;;20.80;99.90;;;;;;4970840;28;20469;-84
2023/08/25 05:05:24;;;;;;;7.27;3.43;;;20.90;99.90;;;;;;4969465;28;20188;-84
2023/08/25 05:07:50;;;;;;;7.27;4.80;;;20.90;99.90;;;;;;4972713;28;20191;-85
2023/08/25 05:10:16;;;;;;;9.87;3.93;;;20.90;99.90;;;;;;4968785;28;20269;-83
2023/08/25 05:12:42;;;;;;;6.13;4.50;;;21.40;99.90;;;;;;4968047;28;20434;-84
2023/08/25 05:15:08;;;;;;;10.70;3.40;;;22.30;99.90;;;;;;4968507;28;20187;-82
2023/08/25 05:17:33;;;;;;;7.57;4.40;;;22.90;99.90;;;;;;4973713;28;20187;-83
2023/08/25 05:19:59;;;;;;;5.57;3.77;;;23.50;99.90;;;;;;4970659;28;20573;-83
2023/08/25 05:22:24;;;;;;;5.40;4.03;;;23.70;99.90;;;;;;4977574;28;20199;-83
2023/08/25 05:24:52;;;;;;;4.43;4.03;;;24.10;99.90;;;;;;4971602;28;20185;-84
2023/08/25 05:27:18;;;;;;;6.87;4.63;;;24.60;99.90;;;;;;4972606;28;20191;-81
2023/08/25 05:29:43;;;;;;;6.83;4.60;;;24.90;99.90;;;;;;4966372;28;20482;-84
2023/08/25 05:32:09;;;;;;;5.13;3.57;;;25.70;99.90;;;;;;4969390;28;20186;-83
2023/08/25 05:34:34;;;;;;;6.10;4.53;;;27.00;99.90;;;;;;4970805;28;20185;-82
2023/08/25 05:37:00;;;;;;;6.43;3.50;;;27.70;99.90;;;;;;4980998;28;20186;-78
2023/08/25 05:39:25;;;;;;;7.47;4.40;;;28.40;99.90;;;;;;4979636;28;20220;-81
2023/08/25 05:41:51;;;;;;;4.17;3.50;;;28.40;99.90;;;;;;4971978;28;20275;-79
2023/08/25 05:44:16;;;;;;;5.40;3.10;;;29.00;99.90;;;;;;4969492;28;20190;-83
2023/08/25 05:46:43;;;;;;;8.60;3.57;;;28.40;99.90;;;;;;4980367;28;20877;-79
2023/08/25 05:49:09;;;;;;;8.63;3.70;;;27.90;99.90;;;;;;4971317;28;20199;-78
2023/08/25 05:51:34;;;;;;;4.13;3.70;;;27.10;99.90;;;;;;4971562;28;20551;-81
2023/08/25 05:54:00;;;;;;;7.63;4.47;;;26.00;99.90;;;;;;4973284;28;20186;-79
2023/08/25 05:56:27;;;;;;;10.57;4.40;;;24.40;99.90;;;;;;4981575;28;20216;-85
2023/08/25 05:58:53;;;;;;;7.97;3.83;;;23.70;99.90;;;;;;4972920;28;20492;-82
2023/08/25 06:01:20;;;;;;;5.43;3.27;;;23.00;99.90;;;;;;4974623;28;21102;-80
2023/08/25 06:03:45;;;;;;;4.90;3.53;;;23.00;99.90;;;;;;4969683;28;20429;-83
2023/08/25 06:06:12;;;;;;;6.00;3.07;;;22.30;99.90;;;;;;4973639;28;20529;-80
2023/08/25 06:08:37;;;;;;;4.87;3.70;;;22.00;99.90;;;;;;4973156;28;20183;-80
2023/08/25 06:11:03;;;;;;;5.93;3.73;;;21.90;99.90;;;;;;4967213;28;21047;-79
2023/08/25 06:13:29;;;;;;;6.67;4.20;;;21.60;99.90;;;;;;4977036;28;20873;-80
2023/08/25 06:15:55;;;;;;;12.43;4.67;;;21.60;99.90;;;;;;4972905;28;20485;-83
2023/08/25 06:18:20;;;;;;;5.60;3.80;;;21.50;99.90;;;;;;4970651;28;20171;-78
2023/08/25 06:20:46;;;;;;;8.77;3.83;;;21.50;99.90;;;;;;4973739;28;20212;-80
2023/08/25 06:23:14;;;;;;;11.53;4.43;;;21.50;99.90;;;;;;4974767;28;20199;-82
2023/08/25 06:25:40;;;;;;;14.17;4.37;;;21.30;99.90;;;;;;4959967;28;20187;-84
2023/08/25 06:28:05;;;;;;;7.57;4.07;;;20.90;99.90;;;;;;4961541;28;20462;-80
2023/08/25 06:30:31;;;;;;;6.63;5.53;;;20.60;99.90;;;;;;4964847;28;20613;-84
2023/08/25 06:32:56;;;;;;;7.93;4.57;;;20.40;99.90;;;;;;4963164;28;20188;-82
2023/08/25 06:35:22;;;;;;;10.40;4.47;;;20.10;99.90;;;;;;4966759;28;20288;-86
2023/08/25 06:37:49;;;;;;;6.00;5.10;;;20.00;99.90;;;;;;4962781;28;20669;-79
2023/08/25 06:40:15;;;;;;;7.30;4.90;;;20.00;99.90;;;;;;4964418;28;20810;-78
2023/08/25 06:42:40;;;;;;;7.90;4.70;;;19.90;99.90;;;;;;4961200;28;20962;-79
2023/08/25 06:45:10;;;;;;;6.33;4.50;;;19.80;99.90;;;;;;4957517;28;20180;-79
2023/08/25 06:47:35;;;;;;;7.73;4.70;;;19.70;99.90;;;;;;4964063;28;20192;-83
2023/08/25 06:50:02;;;;;;;8.93;4.80;;;19.60;99.90;;;;;;4970339;28;20479;-84
2023/08/25 06:52:28;;;;;;;5.70;4.70;;;19.60;99.90;;;;;;4967439;28;20180;-80
2023/08/25 06:54:53;;;;;;;6.80;4.10;;;19.60;99.90;;;;;;4983834;28;20457;-80
2023/08/25 06:57:19;;;;;;;8.90;4.50;;;19.60;99.90;;;;;;4970372;28;21314;-79
2023/08/25 06:59:44;;;;;;;8.70;4.77;;;19.60;99.90;;;;;;4962938;28;20603;-80
2023/08/25 07:02:10;;;;;;;5.33;4.17;;;19.60;99.90;;;;;;4969717;28;20667;-79
2023/08/25 07:04:36;;;;;;;5.90;3.80;;;19.50;99.90;;;;;;4970684;28;20190;-77
2023/08/25 07:07:01;;;;;;;5.73;4.30;;;19.60;99.90;;;;;;4974928;28;20187;-79
2023/08/25 07:09:28;;;;;;;9.60;4.33;;;19.50;99.90;;;;;;4967597;28;20219;-81
2023/08/25 07:11:54;;;;;;;7.63;4.63;;;19.50;99.90;;;;;;4969519;28;20885;-81
2023/08/25 07:14:19;;;;;;;6.40;4.00;;;19.60;99.90;;;;;;4972477;28;20461;-81
2023/08/25 07:16:45;;;;;;;7.17;4.27;;;19.50;99.90;;;;;;4973148;28;20477;-78
2023/08/25 07:19:11;;;;;;;11.50;3.50;;;19.40;99.90;;;;;;4971954;28;20184;-80
2023/08/25 07:21:37;;;;;;;9.17;3.27;;;19.30;99.90;;;;;;4970349;28;20191;-82
2023/08/25 07:24:03;;;;;;;5.37;2.80;;;19.10;99.90;;;;;;4986565;28;20843;-75
2023/08/25 07:26:29;;;;;;;6.73;3.60;;;19.00;99.90;;;;;;4977073;28;20447;-80
2023/08/25 07:28:54;;;;;;;9.13;4.30;;;18.80;99.90;;;;;;4959983;28;20438;-80
2023/08/25 07:31:20;;;;;;;6.30;3.70;;;18.80;99.90;;;;;;4966935;28;20275;-83
2023/08/25 07:33:45;;;;;;;5.60;4.27;;;18.80;99.90;;;;;;4966721;28;20221;-82
2023/08/25 07:36:11;;;;;;;11.70;5.13;;;18.80;99.90;;;;;;4970753;28;20189;-80
2023/08/25 07:38:36;;;;;;;7.47;5.73;;;18.80;99.90;;;;;;4972139;28;20179;-76
2023/08/25 07:41:02;;;;;;;11.73;5.50;;;19.30;99.90;;;;;;4978514;28;20199;-80
2023/08/25 07:43:28;;;;;;;6.40;5.13;;;18.90;99.90;;;;;;4965629;28;20192;-77
2023/08/25 07:45:54;;;;;;;6.73;4.30;;;18.90;99.90;;;;;;4968158;28;20191;-77
2023/08/25 07:48:20;;;;;;;6.53;4.57;;;18.90;99.90;;;;;;4972645;28;20542;-83
2023/08/25 07:50:46;;;;;;;4.90;3.63;;;18.90;99.90;;;;;;4972440;28;20570;-86
2023/08/25 07:53:13;;;;;;;6.77;4.67;;;18.90;99.90;;;;;;4966072;28;21612;-80
2023/08/25 07:55:39;;;;;;;5.03;3.70;;;18.90;99.90;;;;;;4962690;28;20590;-78
2023/08/25 07:58:06;;;;;;;7.10;3.80;;;18.90;99.90;;;;;;4961618;28;20435;-79
2023/08/25 08:00:32;;;;;;;11.83;4.30;;;18.90;99.90;;;;;;4967241;28;21065;-78
2023/08/25 08:02:58;;;;;;;10.30;4.57;;;19.00;99.90;;;;;;4954898;28;20509;-79
2023/08/25 08:05:23;;;;;;;5.37;3.63;;;19.00;99.90;;;;;;4961797;28;21236;-80
2023/08/25 08:07:49;;;;;;;4.73;3.07;;;19.00;99.90;;;;;;4956480;28;20615;-79
2023/08/25 08:10:15;;;;;;;10.10;4.77;;;19.10;99.90;;;;;;4962582;28;20211;-80
2023/08/25 08:12:42;;;;;;;5.80;3.97;;;19.10;99.90;;;;;;4968817;28;20187;-80
2023/08/25 08:15:09;;;;;;;4.77;3.67;;;19.20;99.90;;;;;;4981161;28;20431;-79
2023/08/25 08:17:34;;;;;;;4.53;2.27;;;19.20;99.90;;;;;;4973957;28;21533;-80
2023/08/25 08:20:00;;;;;;;4.53;2.93;;;19.30;99.90;;;;;;4964976;28;20454;-83
2023/08/25 08:22:27;;;;;;;3.60;2.70;;;19.40;99.90;;;;;;4969789;28;20206;-81
2023/08/25 08:24:52;;;;;;;5.47;3.07;;;19.40;99.90;;;;;;4971333;28;20187;-82
2023/08/25 08:27:18;;;;;;;11.33;3.47;;;19.50;99.90;;;;;;4965814;28;20446;-78
2023/08/25 08:29:46;;;;;;;4.23;3.17;;;19.60;99.90;;;;;;4967964;28;21026;-80
2023/08/25 08:32:15;;;;;;;6.43;3.73;;;19.60;99.90;;;;;;4964010;28;20486;-80
2023/08/25 08:34:40;;;;;;;3.80;2.50;;;19.60;99.90;;;;;;4960954;28;20450;-80
2023/08/25 08:37:06;;;;;;;5.10;2.93;;;19.60;99.90;;;;;;4967368;28;20453;-78
2023/08/25 08:39:37;;;;;;;5.87;3.07;;;19.60;99.90;;;;;;4965123;28;20253;-82
2023/08/25 08:42:03;;;;;;;5.23;2.73;;;19.50;99.90;;;;;;4971261;28;20213;-79
2023/08/25 08:44:30;;;;;;;3.30;2.20;;;19.50;99.90;;;;;;4975575;28;20445;-78
2023/08/25 08:46:57;;;;;;;6.60;4.00;;;19.40;99.90;;;;;;4991658;28;20445;-76
2023/08/25 08:49:26;;;;;;;3.00;2.47;;;19.40;99.90;;;;;;4988649;28;20477;-77
2023/08/25 08:51:53;;;;;;;6.63;3.50;;;19.40;99.90;;;;;;4991515;28;21958;-81
2023/08/25 08:54:19;;;;;;;4.20;3.37;;;19.40;99.90;;;;;;4973379;28;20449;-81
2023/08/25 08:59:51;;;;;;;5.67;3.17;;;19.50;99.90;;;;;;5014730;23;20519;-84
2023/08/25 09:02:20;;;;;;;2.83;2.63;;;19.60;99.90;;;;;;5007396;28;20469;-84
2023/08/25 09:04:46;;;;;;;5.67;3.27;;;19.60;99.90;;;;;;5008087;28;20418;-84
2023/08/25 09:07:12;;;;;;;4.30;3.83;;;19.70;99.90;;;;;;5001247;28;20833;-85
2023/08/25 09:09:40;;;;;;;6.03;2.97;;;19.70;99.90;;;;;;4998794;28;20490;-85
2023/08/25 09:12:05;;;;;;;9.73;4.03;;;19.70;99.90;;;;;;5005940;28;20177;-83
2023/08/25 09:14:31;;;;;;;4.83;3.17;;;19.80;99.90;;;;;;5005178;28;20429;-85
2023/08/25 09:17:00;;;;;;;4.00;3.30;;;19.80;99.90;;;;;;5002939;28;20280;-85
2023/08/25 09:19:30;;;;;;;5.20;2.90;;;19.90;99.90;;;;;;4999526;28;20242;-84
2023/08/25 09:21:55;;;;;;;4.80;2.80;;;20.00;99.90;;;;;;5002426;28;20503;-84
2023/08/25 09:24:22;;;;;;;3.53;2.80;;;20.20;99.90;;;;;;5000931;28;20449;-84
2023/08/25 09:26:49;;;;;;;4.73;3.40;;;20.40;99.90;;;;;;5009597;28;20205;-85
2023/08/25 09:29:15;;;;;;;16.33;3.40;;;20.50;99.90;;;;;;5004362;28;20940;-83
2023/08/25 09:31:42;;;;;;;3.80;2.60;;;20.60;99.90;;;;;;5006594;28;20477;-84
2023/08/25 09:34:10;;;;;;;4.00;2.30;;;20.70;99.90;;;;;;5007396;28;20489;-85
2023/08/25 09:36:51;;;;;;;7.47;2.70;;;20.90;99.90;;;;;;5008146;28;20422;-83
2023/08/25 09:39:16;;;;;;;3.20;2.20;;;20.90;99.90;;;;;;5009306;28;20445;-85
2023/08/25 09:41:44;;;;;;;6.50;2.30;;;20.50;99.90;;;;;;5014954;28;20417;-84
2023/08/25 09:44:10;;;;;;;6.77;3.13;;;20.40;99.90;;;;;;5006229;28;20241;-85
2023/08/25 09:46:36;;;;;;;5.63;3.50;;;20.20;99.90;;;;;;5014670;28;20440;-83
2023/08/25 09:49:07;;;;;;;4.33;3.30;;;20.00;99.90;;;;;;5015575;28;20465;-84
2023/08/25 09:51:37;;;;;;;5.87;3.03;;;19.90;99.90;;;;;;5007926;28;20525;-85
2023/08/25 09:54:08;;;;;;;7.13;3.07;;;20.00;99.90;;;;;;5001520;28;21006;-84
2023/08/25 09:56:36;;;;;;;6.10;3.30;;;20.00;99.90;;;;;;5008192;28;20437;-85
2023/08/25 09:59:03;;;;;;;5.60;3.17;;;20.10;99.90;;;;;;5005007;28;20466;-84
2023/08/25 10:01:30;;;;;;;5.67;4.23;;;20.20;99.90;;;;;;5004084;28;20437;-86
2023/08/25 10:03:57;;;;;;;6.27;3.40;;;20.40;99.90;;;;;;4997302;28;20478;-86
2023/08/25 10:06:22;;;;;;;4.20;3.80;;;20.50;99.90;;;;;;5000476;28;20458;-86
2023/08/25 10:08:48;;;;;;;5.03;3.60;;;20.50;99.90;;;;;;5002582;28;20855;-86
2023/08/25 10:11:16;;;;;;;13.13;4.07;;;20.70;99.90;;;;;;5004741;28;20246;-84
2023/08/25 10:13:44;;;;;;;5.30;3.57;;;20.80;99.90;;;;;;5008537;28;20186;-85
2023/08/25 10:16:11;;;;;;;4.90;4.00;;;20.90;99.90;;;;;;5003988;28;20441;-84
2023/08/25 10:18:39;;;;;;;11.20;3.70;;;20.80;99.90;;;;;;5006756;28;20518;-85
2023/08/25 10:21:06;;;;;;;3.23;2.80;;;20.90;99.90;;;;;;5006810;28;20480;-85
2023/08/25 10:23:36;;;;;;;5.67;3.43;;;21.00;99.90;;;;;;5010968;28;20429;-84
2023/08/25 10:26:03;;;;;;;5.50;2.73;;;21.10;99.90;;;;;;5020163;28;20504;-86
2023/08/25 10:28:29;;;;;;;2.87;2.57;;;21.00;99.90;;;;;;5004414;28;20452;-85
2023/08/25 10:30:55;;;;;;;5.10;3.40;;;20.90;99.90;;;;;;5001058;28;20464;-84
2023/08/25 10:33:22;;;;;;;4.80;3.20;;;20.90;99.90;;;;;;5008429;28;20942;-86
2023/08/25 10:35:48;;;;;;;8.40;3.60;;;21.10;99.90;;;;;;5003472;28;20181;-85
2023/08/25 10:38:26;;;;;;;8.27;3.50;;;21.20;99.90;;;;;;4999998;28;20480;-85
2023/08/25 10:40:53;;;;;;;8.83;3.47;;;21.60;99.90;;;;;;5010306;28;20842;-86
2023/08/25 10:43:33;;;;;;;4.63;3.43;;;21.80;99.90;;;;;;5005518;28;20520;-85
2023/08/25 10:46:08;;;;;;;5.90;2.70;;;22.00;99.90;;;;;;5009082;28;21127;-85
2023/08/25 10:48:34;;;;;;;5.93;3.27;;;22.10;99.90;;;;;;5008877;28;20449;-87
2023/08/25 10:51:11;;;;;;;3.70;2.47;;;22.00;99.90;;;;;;5005652;28;20462;-86
2023/08/25 10:53:41;;;;;;;4.33;2.87;;;22.20;99.90;;;;;;5012512;28;20456;-85
2023/08/25 10:56:22;;;;;;;5.87;3.40;;;22.30;99.90;;;;;;5000075;28;20426;-82
2023/08/25 10:58:58;;;;;;;6.97;3.10;;;22.50;99.90;;;;;;5004605;28;20981;-82
2023/08/25 11:01:25;;;;;;;3.73;2.93;;;22.80;99.90;;;;;;5003824;28;20953;-87
2023/08/25 11:04:07;;;;;;;5.73;3.30;;;23.10;99.90;;;;;;4998681;28;20425;-87
2023/08/25 11:06:43;;;;;;;4.07;3.13;;;23.60;99.90;;;;;;5000275;28;20480;-86
2023/08/25 11:09:31;;;;;;;4.73;3.17;;;23.90;99.90;;;;;;5001444;28;20449;-86
2023/08/25 11:12:08;;;;;;;4.23;3.10;;;24.00;99.90;;;;;;5010998;28;20442;-85
2023/08/25 11:14:39;;;;;;;4.10;3.00;;;23.80;99.90;;;;;;5006874;28;21001;-86
2023/08/25 11:17:06;;;;;;;4.07;2.90;;;23.60;99.90;;;;;;5003628;28;20438;-85
2023/08/25 11:19:36;;;;;;;7.47;3.30;;;23.80;99.90;;;;;;5007616;28;20448;-84
2023/08/25 11:22:05;;;;;;;3.60;3.30;;;23.80;99.90;;;;;;5008134;28;20845;-87
2023/08/25 11:24:32;;;;;;;4.63;2.20;;;23.90;99.90;;;;;;5012711;28;20430;-87
2023/08/25 11:27:11;;;;;;;7.30;3.20;;;24.00;99.90;;;;;;5008391;28;20425;-85
2023/08/25 11:29:44;;;;;;;5.33;2.70;;;24.00;99.90;;;;;;5013898;28;20458;-87
2023/08/25 11:32:15;;;;;;;4.00;3.60;;;24.00;99.90;;;;;;5014421;28;20449;-86
2023/08/25 11:34:49;;;;;;;4.57;3.00;;;24.10;99.90;;;;;;5014273;28;20406;-87
2023/08/25 11:37:14;;;;;;;2.87;2.57;;;24.00;99.90;;;;;;5012920;28;20702;-87
2023/08/25 11:39:44;;;;;;;6.43;3.50;;;24.00;99.90;;;;;;5004817;28;20445;-86
2023/08/25 11:42:10;;;;;;;4.90;3.10;;;24.00;99.90;;;;;;5000348;28;20656;-86
2023/08/25 11:44:44;;;;;;;5.80;3.67;;;24.00;99.90;;;;;;5001814;28;20441;-88
2023/08/25 11:47:10;;;;;;;4.93;2.90;;;23.90;99.90;;;;;;4998120;28;20686;-86
2023/08/25 11:49:36;;;;;;;8.70;3.97;;;23.70;99.90;;;;;;4993000;28;20459;-86
2023/08/25 11:52:02;;;;;;;3.73;3.10;;;23.70;99.90;;;;;;5000550;28;20414;-86
2023/08/25 11:54:28;;;;;;;3.30;2.70;;;23.60;99.90;;;;;;5013916;28;20414;-88
2023/08/25 11:56:53;;;;;;;4.70;3.40;;;23.70;99.90;;;;;;4999845;28;20211;-86
2023/08/25 11:59:20;;;;;;;9.40;3.93;;;23.80;99.90;;;;;;5013389;28;20207;-88
2023/08/25 12:01:49;;;;;;;3.03;2.50;;;23.90;99.90;;;;;;5001912;28;20202;-86
2023/08/25 12:04:26;;;;;;;5.23;3.47;;;24.00;99.90;;;;;;5003529;28;20432;-85
2023/08/25 12:06:57;;;;;;;3.80;2.90;;;23.80;99.90;;;;;;5005481;28;20826;-87
2023/08/25 12:09:24;;;;;;;3.87;2.70;;;23.50;99.90;;;;;;4994918;28;20471;-86
2023/08/25 12:11:56;;;;;;;6.60;3.63;;;23.30;99.90;;;;;;4998587;28;20508;-87
2023/08/25 12:14:30;;;;;;;7.50;3.30;;;23.10;99.90;;;;;;5001245;28;20453;-86
2023/08/25 12:16:57;;;;;;;5.00;2.93;;;23.00;99.90;;;;;;5005264;28;20437;-88
2023/08/25 12:19:26;;;;;;;8.17;3.07;;;23.10;99.90;;;;;;5012386;28;20469;-89
2023/08/25 12:21:53;;;;;;;3.43;3.10;;;23.00;99.90;;;;;;5002630;28;20437;-88
2023/08/25 12:24:19;;;;;;;4.00;3.27;;;23.00;99.90;;;;;;4998619;28;20430;-88
2023/08/25 12:26:46;;;;;;;3.90;3.13;;;23.10;99.90;;;;;;5003913;28;20446;-88
2023/08/25 12:29:11;;;;;;;5.03;2.90;;;23.10;99.90;;;;;;5005603;28;20222;-87
2023/08/25 12:31:37;;;;;;;4.40;3.27;;;23.10;99.90;;;;;;5005311;28;20461;-87
2023/08/25 12:34:03;;;;;;;3.63;2.93;;;23.10;99.90;;;;;;5003977;28;20671;-87
2023/08/25 12:36:29;;;;;;;4.37;3.27;;;24.30;99.90;;;;;;4998684;28;20940;-87
2023/08/25 12:38:54;;;;;;;3.97;3.20;;;23.70;99.90;;;;;;5005252;28;20463;-88
2023/08/25 12:41:20;;;;;;;4.07;2.33;;;24.00;99.90;;;;;;5005420;28;20186;-87
2023/08/25 12:43:46;;;;;;;4.03;3.57;;;23.20;99.90;;;;;;5004540;28;20246;-88
2023/08/25 12:46:12;;;;;;;4.00;3.10;;;23.30;99.90;;;;;;5004337;28;20664;-87
2023/08/25 12:48:38;;;;;;;4.23;3.30;;;23.40;99.90;;;;;;4998908;28;20528;-86